createdAt,value
2024-02-05T00:00:33.392Z,41.44
2024-02-05T00:01:08.168Z,41.46
2024-02-05T00:01:40.144Z,41.33
2024-02-05T00:02:11.743Z,41.40
2024-02-05T00:02:43.184Z,41.43
2024-02-05T00:03:14.603Z,41.33
2024-02-05T00:03:46.233Z,41.43
2024-02-05T00:04:18.112Z,41.27
2024-02-05T00:04:49.770Z,41.32
2024-02-05T00:05:21.314Z,41.27
2024-02-05T00:05:52.830Z,41.31
2024-02-05T00:06:24.284Z,41.29
2024-02-05T00:06:55.940Z,41.28
2024-02-05T00:07:27.523Z,41.34
2024-02-05T00:08:01.103Z,41.23
2024-02-05T00:08:32.729Z,41.31
2024-02-05T00:09:04.232Z,41.23
2024-02-05T00:09:35.743Z,41.31
2024-02-05T00:10:07.483Z,41.37
2024-02-05T00:10:38.962Z,41.26
2024-02-05T00:11:11.459Z,41.18
2024-02-05T00:11:42.986Z,41.13
2024-02-05T00:12:14.442Z,41.16
2024-02-05T00:12:46.091Z,41.14
2024-02-05T00:13:17.735Z,41.32
2024-02-05T00:13:49.336Z,41.11
2024-02-05T00:14:20.851Z,41.37
2024-02-05T00:14:52.337Z,41.29
2024-02-05T00:15:23.785Z,41.26
2024-02-05T00:15:55.322Z,41.19
2024-02-05T00:16:26.789Z,41.29
2024-02-05T00:16:58.237Z,41.26
2024-02-05T00:17:29.717Z,41.16
2024-02-05T00:18:01.244Z,41.24
2024-02-05T00:18:33.009Z,41.31
2024-02-05T00:19:04.663Z,41.21
2024-02-05T00:19:36.255Z,41.26
2024-02-05T00:20:07.879Z,41.38
2024-02-05T00:20:39.437Z,41.29
2024-02-05T00:21:10.936Z,41.29
2024-02-05T00:21:42.393Z,41.28
2024-02-05T00:22:13.882Z,41.18
2024-02-05T00:22:45.328Z,41.20
2024-02-05T00:23:17.007Z,41.28
2024-02-05T00:23:48.472Z,41.08
2024-02-05T00:24:19.981Z,41.13
2024-02-05T00:24:51.462Z,41.21
2024-02-05T00:25:23.025Z,41.28
2024-02-05T00:25:54.490Z,41.27
2024-02-05T00:26:25.929Z,41.24
2024-02-05T00:26:57.384Z,41.23
2024-02-05T00:27:28.839Z,41.34
2024-02-05T00:28:00.437Z,41.20
2024-02-05T00:28:31.972Z,41.24
2024-02-05T00:29:03.516Z,41.27
2024-02-05T00:29:36.561Z,41.08
2024-02-05T00:30:07.998Z,41.23
2024-02-05T00:30:39.476Z,41.14
2024-02-05T00:31:11.021Z,41.22
2024-02-05T00:31:42.546Z,41.34
2024-02-05T00:32:14.068Z,41.24
2024-02-05T00:32:45.655Z,41.21
2024-02-05T00:33:17.212Z,41.17
2024-02-05T00:33:48.799Z,41.23
2024-02-05T00:34:20.517Z,41.17
2024-02-05T00:34:52.080Z,41.27
2024-02-05T00:35:23.631Z,41.29
2024-02-05T00:35:55.457Z,41.23
2024-02-05T00:36:26.960Z,41.26
2024-02-05T00:36:58.482Z,41.02
2024-02-05T00:37:30.146Z,41.32
2024-02-05T00:38:01.663Z,41.27
2024-02-05T00:38:33.202Z,41.29
2024-02-05T00:39:04.634Z,41.19
2024-02-05T00:39:36.171Z,41.20
2024-02-05T00:40:07.707Z,41.22
2024-02-05T00:40:39.199Z,41.25
2024-02-05T00:41:10.634Z,41.16
2024-02-05T00:41:42.117Z,41.02
2024-02-05T00:42:13.598Z,41.03
2024-02-05T00:42:45.122Z,41.08
2024-02-05T00:43:16.689Z,41.05
2024-02-05T00:43:48.584Z,41.27
2024-02-05T00:44:20.102Z,41.16
2024-02-05T00:44:52.777Z,41.13
2024-02-05T00:45:24.294Z,41.06
2024-02-05T00:45:55.879Z,41.07
2024-02-05T00:46:27.480Z,41.11
2024-02-05T00:46:59.050Z,41.12
2024-02-05T00:47:33.504Z,41.13
2024-02-05T00:48:05.118Z,41.14
2024-02-05T00:48:36.757Z,41.26
2024-02-05T00:49:08.399Z,41.21
2024-02-05T00:49:39.999Z,41.21
2024-02-05T00:50:11.709Z,41.07
2024-02-05T00:50:43.238Z,41.09
2024-02-05T00:51:17.455Z,41.24
2024-02-05T00:51:49.181Z,41.17
2024-02-05T00:52:20.850Z,41.29
2024-02-05T00:52:52.373Z,41.23
2024-02-05T00:53:23.851Z,41.26
2024-02-05T00:53:55.319Z,41.05
2024-02-05T00:54:26.798Z,41.07
2024-02-05T00:54:58.363Z,41.13
2024-02-05T00:55:29.875Z,41.15
2024-02-05T00:56:01.417Z,41.23
2024-02-05T00:56:32.986Z,41.22
2024-02-05T00:57:04.424Z,41.13
2024-02-05T00:57:36.003Z,41.20
2024-02-05T00:58:07.528Z,41.16
2024-02-05T00:58:39.001Z,41.00
2024-02-05T00:59:10.434Z,41.05
2024-02-05T00:59:41.927Z,41.15
2024-02-05T01:00:13.399Z,41.04
2024-02-05T01:00:45.187Z,41.04
2024-02-05T01:01:22.637Z,41.29
2024-02-05T01:01:54.236Z,41.23
2024-02-05T01:02:28.000Z,41.13
2024-02-05T01:02:59.429Z,41.27
2024-02-05T01:03:31.231Z,41.11
2024-02-05T01:04:02.962Z,41.13
2024-02-05T01:04:34.603Z,41.06
2024-02-05T01:05:06.270Z,41.20
2024-02-05T01:05:41.172Z,41.15
2024-02-05T01:06:12.956Z,41.15
2024-02-05T01:06:44.705Z,41.17
2024-02-05T01:07:16.484Z,41.06
2024-02-05T01:07:48.117Z,41.22
2024-02-05T01:08:19.821Z,41.13
2024-02-05T01:08:51.386Z,41.26
2024-02-05T01:09:22.859Z,41.15
2024-02-05T01:09:54.550Z,40.98
2024-02-05T01:10:26.206Z,41.24
2024-02-05T01:10:57.748Z,41.20
2024-02-05T01:11:29.226Z,41.12
2024-02-05T01:12:00.815Z,41.15
2024-02-05T01:12:32.341Z,41.25
2024-02-05T01:13:03.956Z,41.27
2024-02-05T01:13:35.574Z,41.30
2024-02-05T01:14:07.077Z,41.20
2024-02-05T01:14:38.606Z,41.30
2024-02-05T01:15:13.149Z,41.18
2024-02-05T01:15:44.627Z,41.13
2024-02-05T01:16:16.215Z,41.18
2024-02-05T01:16:47.797Z,41.25
2024-02-05T01:17:20.497Z,41.22
2024-02-05T01:17:52.151Z,41.32
2024-02-05T01:18:23.767Z,41.22
2024-02-05T01:19:00.221Z,41.25
2024-02-05T01:19:31.874Z,41.22
2024-02-05T01:20:06.490Z,41.17
2024-02-05T01:20:37.969Z,41.30
2024-02-05T01:21:09.467Z,41.21
2024-02-05T01:21:41.043Z,41.27
2024-02-05T01:22:12.681Z,41.18
2024-02-05T01:22:44.237Z,41.17
2024-02-05T01:23:18.678Z,41.18
2024-02-05T01:23:50.170Z,41.31
2024-02-05T01:24:21.630Z,41.26
2024-02-05T01:24:53.129Z,41.07
2024-02-05T01:25:24.716Z,41.21
2024-02-05T01:25:56.243Z,41.17
2024-02-05T01:26:27.792Z,41.19
2024-02-05T01:27:01.183Z,41.17
2024-02-05T01:27:32.684Z,41.26
2024-02-05T01:28:04.175Z,41.16
2024-02-05T01:28:35.857Z,41.14
2024-02-05T01:29:07.401Z,41.25
2024-02-05T01:29:41.102Z,41.20
2024-02-05T01:30:12.546Z,41.29
2024-02-05T01:30:43.968Z,41.22
2024-02-05T01:31:15.473Z,41.43
2024-02-05T01:31:47.093Z,41.25
2024-02-05T01:32:18.649Z,41.19
2024-02-05T01:32:50.194Z,41.25
2024-02-05T01:33:21.973Z,41.19
2024-02-05T01:33:53.690Z,41.14
2024-02-05T01:34:25.309Z,41.28
2024-02-05T01:34:56.896Z,41.13
2024-02-05T01:35:28.522Z,41.18
2024-02-05T01:36:00.045Z,41.16
2024-02-05T01:36:31.518Z,41.11
2024-02-05T01:37:03.100Z,41.19
2024-02-05T01:37:34.628Z,41.13
2024-02-05T01:38:06.175Z,41.14
2024-02-05T01:38:37.674Z,41.14
2024-02-05T01:39:09.204Z,41.13
2024-02-05T01:39:40.787Z,41.18
2024-02-05T01:40:12.340Z,41.09
2024-02-05T01:40:43.822Z,41.13
2024-02-05T01:41:15.266Z,41.10
2024-02-05T01:41:46.726Z,41.14
2024-02-05T01:42:19.816Z,41.10
2024-02-05T01:42:51.443Z,41.09
2024-02-05T01:43:23.020Z,41.17
2024-02-05T01:43:57.666Z,41.17
2024-02-05T01:44:29.140Z,41.27
2024-02-05T01:45:00.604Z,41.09
2024-02-05T01:45:32.102Z,41.17
2024-02-05T01:46:03.642Z,40.98
2024-02-05T01:46:37.703Z,41.12
2024-02-05T01:47:09.227Z,41.14
2024-02-05T01:47:40.812Z,41.15
2024-02-05T01:48:12.445Z,41.23
2024-02-05T01:48:44.063Z,41.09
2024-02-05T01:49:15.842Z,41.08
2024-02-05T01:49:47.572Z,41.21
2024-02-05T01:50:19.110Z,41.26
2024-02-05T01:50:50.589Z,41.13
2024-02-05T01:51:22.058Z,41.05
2024-02-05T01:51:53.716Z,41.22
2024-02-05T01:52:25.408Z,41.20
2024-02-05T01:52:56.871Z,41.21
2024-02-05T01:53:28.355Z,41.09
2024-02-05T01:54:02.554Z,41.11
2024-02-05T01:54:34.015Z,41.11
2024-02-05T01:55:05.562Z,41.12
2024-02-05T01:55:38.884Z,41.08
2024-02-05T01:56:10.407Z,41.01
2024-02-05T01:56:41.893Z,41.12
2024-02-05T01:57:14.545Z,41.15
2024-02-05T01:57:46.094Z,41.08
2024-02-05T01:58:33.459Z,41.15
2024-02-05T01:59:05.016Z,41.21
2024-02-05T01:59:36.462Z,41.05
2024-02-05T02:00:07.881Z,41.09
2024-02-05T02:00:39.398Z,40.98
2024-02-05T02:01:11.143Z,40.98
2024-02-05T02:01:42.985Z,40.99
2024-02-05T02:02:14.584Z,41.19
2024-02-05T02:02:46.077Z,41.00
2024-02-05T02:03:17.494Z,41.07
2024-02-05T02:03:49.039Z,41.06
2024-02-05T02:04:20.603Z,41.17
2024-02-05T02:04:52.285Z,41.12
2024-02-05T02:05:23.905Z,41.13
2024-02-05T02:05:55.497Z,40.92
2024-02-05T02:06:29.791Z,41.16
2024-02-05T02:07:01.356Z,41.19
2024-02-05T02:07:32.842Z,41.03
2024-02-05T02:08:04.344Z,40.95
2024-02-05T02:08:35.894Z,41.11
2024-02-05T02:09:07.453Z,41.03
2024-02-05T02:09:39.014Z,41.01
2024-02-05T02:10:10.708Z,41.00
2024-02-05T02:10:42.248Z,41.08
2024-02-05T02:11:13.790Z,41.11
2024-02-05T02:11:45.348Z,41.04
2024-02-05T02:12:16.816Z,41.06
2024-02-05T02:12:48.370Z,41.05
2024-02-05T02:13:20.334Z,41.09
2024-02-05T02:13:52.012Z,41.07
2024-02-05T02:14:26.150Z,41.08
2024-02-05T02:14:57.682Z,40.96
2024-02-05T02:15:29.140Z,40.89
2024-02-05T02:16:00.765Z,40.98
2024-02-05T02:16:32.257Z,40.93
2024-02-05T02:17:06.383Z,40.93
2024-02-05T02:17:37.871Z,40.87
2024-02-05T02:18:09.372Z,41.12
2024-02-05T02:18:41.030Z,40.97
2024-02-05T02:19:12.737Z,41.03
2024-02-05T02:19:44.629Z,40.90
2024-02-05T02:20:16.370Z,40.95
2024-02-05T02:20:47.883Z,41.05
2024-02-05T02:21:19.402Z,41.01
2024-02-05T02:21:50.873Z,41.04
2024-02-05T02:22:22.466Z,41.02
2024-02-05T02:22:54.020Z,40.95
2024-02-05T02:23:25.534Z,40.96
2024-02-05T02:23:57.209Z,40.87
2024-02-05T02:24:28.745Z,40.90
2024-02-05T02:25:00.300Z,40.89
2024-02-05T02:25:31.777Z,40.90
2024-02-05T02:26:03.299Z,40.96
2024-02-05T02:26:34.739Z,40.94
2024-02-05T02:27:06.204Z,40.81
2024-02-05T02:27:37.666Z,41.02
2024-02-05T02:28:09.217Z,41.01
2024-02-05T02:28:40.757Z,40.83
2024-02-05T02:29:12.206Z,40.80
2024-02-05T02:29:43.637Z,40.90
2024-02-05T02:30:15.112Z,40.87
2024-02-05T02:30:46.654Z,41.00
2024-02-05T02:31:18.225Z,41.07
2024-02-05T02:31:49.752Z,40.87
2024-02-05T02:32:21.257Z,40.90
2024-02-05T02:32:52.853Z,40.81
2024-02-05T02:33:27.583Z,40.92
2024-02-05T02:34:02.038Z,40.89
2024-02-05T02:34:33.655Z,40.84
2024-02-05T02:35:05.224Z,40.88
2024-02-05T02:35:36.693Z,40.81
2024-02-05T02:36:08.127Z,40.83
2024-02-05T02:36:39.672Z,40.88
2024-02-05T02:37:13.881Z,40.92
2024-02-05T02:37:45.370Z,40.75
2024-02-05T02:38:16.893Z,40.77
2024-02-05T02:38:48.396Z,40.80
2024-02-05T02:39:19.881Z,40.67
2024-02-05T02:39:51.360Z,40.75
2024-02-05T02:40:22.899Z,40.83
2024-02-05T02:40:54.351Z,40.81
2024-02-05T02:41:25.831Z,40.80
2024-02-05T02:41:57.358Z,40.72
2024-02-05T02:42:28.864Z,40.84
2024-02-05T02:43:00.449Z,40.75
2024-02-05T02:43:37.842Z,40.74
2024-02-05T02:44:09.315Z,40.87
2024-02-05T02:44:40.908Z,40.85
2024-02-05T02:45:12.444Z,40.70
2024-02-05T02:45:45.776Z,40.71
2024-02-05T02:46:17.309Z,40.65
2024-02-05T02:46:48.750Z,40.81
2024-02-05T02:47:20.316Z,40.81
2024-02-05T02:47:54.459Z,40.83
2024-02-05T02:48:25.969Z,40.70
2024-02-05T02:48:57.658Z,40.72
2024-02-05T02:49:29.403Z,40.79
2024-02-05T02:50:01.026Z,40.72
2024-02-05T02:50:35.484Z,40.82
2024-02-05T02:51:06.913Z,40.73
2024-02-05T02:51:38.416Z,40.71
2024-02-05T02:52:10.110Z,40.74
2024-02-05T02:52:41.653Z,40.83
2024-02-05T02:53:13.169Z,40.71
2024-02-05T02:53:47.562Z,40.77
2024-02-05T02:54:19.022Z,40.75
2024-02-05T02:54:50.604Z,40.85
2024-02-05T02:55:23.769Z,40.73
2024-02-05T02:55:58.055Z,40.80
2024-02-05T02:56:29.574Z,40.88
2024-02-05T02:57:01.392Z,40.81
2024-02-05T02:57:32.949Z,40.75
2024-02-05T02:58:04.429Z,40.81
2024-02-05T02:58:35.937Z,40.60
2024-02-05T02:59:09.784Z,40.72
2024-02-05T02:59:41.238Z,40.74
2024-02-05T03:00:15.317Z,40.76
2024-02-05T03:00:46.853Z,40.72
2024-02-05T03:01:18.429Z,40.65
2024-02-05T03:01:50.012Z,40.63
2024-02-05T03:02:21.733Z,40.73
2024-02-05T03:02:53.287Z,40.83
2024-02-05T03:03:24.757Z,40.86
2024-02-05T03:03:56.254Z,40.73
2024-02-05T03:04:30.899Z,40.73
2024-02-05T03:05:02.507Z,40.63
2024-02-05T03:05:34.084Z,41.01
2024-02-05T03:06:05.988Z,40.82
2024-02-05T03:06:38.587Z,40.83
2024-02-05T03:07:10.287Z,40.65
2024-02-05T03:07:41.807Z,40.74
2024-02-05T03:08:13.358Z,40.63
2024-02-05T03:08:44.926Z,40.71
2024-02-05T03:09:16.411Z,40.74
2024-02-05T03:09:48.105Z,40.90
2024-02-05T03:10:19.749Z,40.79
2024-02-05T03:10:53.202Z,40.81
2024-02-05T03:11:24.742Z,40.74
2024-02-05T03:11:56.292Z,40.68
2024-02-05T03:12:27.901Z,40.64
2024-02-05T03:12:59.563Z,40.61
2024-02-05T03:13:31.277Z,40.65
2024-02-05T03:14:02.939Z,40.68
2024-02-05T03:14:34.711Z,40.71
2024-02-05T03:15:06.367Z,40.59
2024-02-05T03:15:38.086Z,40.75
2024-02-05T03:16:09.633Z,40.74
2024-02-05T03:16:41.216Z,40.63
2024-02-05T03:17:12.815Z,40.72
2024-02-05T03:17:44.402Z,40.70
2024-02-05T03:18:15.979Z,40.73
2024-02-05T03:18:47.752Z,40.73
2024-02-05T03:19:19.307Z,40.57
2024-02-05T03:19:51.172Z,40.69
2024-02-05T03:20:22.866Z,40.56
2024-02-05T03:20:57.011Z,40.65
2024-02-05T03:21:29.452Z,40.72
2024-02-05T03:22:00.986Z,40.75
2024-02-05T03:22:32.770Z,40.48
2024-02-05T03:23:08.808Z,40.66
2024-02-05T03:23:43.161Z,40.61
2024-02-05T03:24:14.704Z,40.65
2024-02-05T03:24:46.190Z,40.65
2024-02-05T03:25:20.953Z,40.72
2024-02-05T03:25:52.428Z,40.61
2024-02-05T03:26:23.874Z,40.57
2024-02-05T03:26:55.366Z,40.58
2024-02-05T03:27:26.800Z,40.66
2024-02-05T03:27:58.255Z,40.66
2024-02-05T03:28:29.725Z,40.65
2024-02-05T03:29:01.194Z,40.65
2024-02-05T03:29:32.673Z,40.61
2024-02-05T03:30:04.223Z,40.45
2024-02-05T03:30:35.759Z,40.61
2024-02-05T03:31:07.373Z,40.62
2024-02-05T03:31:38.956Z,40.52
2024-02-05T03:32:10.508Z,40.66
2024-02-05T03:32:42.041Z,40.59
2024-02-05T03:33:13.558Z,40.58
2024-02-05T03:33:45.088Z,40.51
2024-02-05T03:34:16.691Z,40.57
2024-02-05T03:34:48.455Z,40.54
2024-02-05T03:35:19.990Z,40.63
2024-02-05T03:35:51.558Z,40.58
2024-02-05T03:36:23.007Z,40.63
2024-02-05T03:36:54.492Z,40.52
2024-02-05T03:37:25.927Z,40.53
2024-02-05T03:37:57.413Z,40.54
2024-02-05T03:38:37.513Z,40.61
2024-02-05T03:39:09.029Z,40.61
2024-02-05T03:39:40.679Z,40.61
2024-02-05T03:40:12.266Z,40.56
2024-02-05T03:40:43.841Z,40.58
2024-02-05T03:41:15.294Z,40.61
2024-02-05T03:41:46.779Z,40.57
2024-02-05T03:42:18.295Z,40.54
2024-02-05T03:42:52.451Z,40.59
2024-02-05T03:43:24.037Z,40.67
2024-02-05T03:43:55.577Z,40.46
2024-02-05T03:44:27.362Z,40.69
2024-02-05T03:44:58.862Z,40.50
2024-02-05T03:45:30.339Z,40.50
2024-02-05T03:46:01.891Z,40.40
2024-02-05T03:46:33.408Z,40.52
2024-02-05T03:47:04.895Z,40.48
2024-02-05T03:47:36.505Z,40.30
2024-02-05T03:48:08.044Z,40.51
2024-02-05T03:48:39.650Z,40.60
2024-02-05T03:49:11.284Z,40.46
2024-02-05T03:49:42.852Z,40.34
2024-02-05T03:50:14.406Z,40.50
2024-02-05T03:50:45.950Z,40.54
2024-02-05T03:51:20.328Z,40.46
2024-02-05T03:51:51.797Z,40.47
2024-02-05T03:52:26.581Z,40.54
2024-02-05T03:52:58.097Z,40.46
2024-02-05T03:53:29.592Z,40.37
2024-02-05T03:54:01.053Z,40.48
2024-02-05T03:54:32.544Z,40.44
2024-02-05T03:55:04.112Z,40.44
2024-02-05T03:55:35.663Z,40.52
2024-02-05T03:56:07.091Z,40.45
2024-02-05T03:56:38.615Z,40.48
2024-02-05T03:57:10.093Z,40.42
2024-02-05T03:57:41.582Z,40.50
2024-02-05T03:58:14.926Z,40.42
2024-02-05T03:58:46.429Z,40.38
2024-02-05T03:59:20.112Z,40.46
2024-02-05T03:59:51.678Z,40.29
2024-02-05T04:00:23.131Z,40.41
2024-02-05T04:00:54.687Z,40.55
2024-02-05T04:01:26.413Z,40.43
2024-02-05T04:01:57.987Z,40.47
2024-02-05T04:02:30.782Z,40.56
2024-02-05T04:03:02.445Z,40.43
2024-02-05T04:03:35.717Z,40.36
2024-02-05T04:04:07.289Z,40.44
2024-02-05T04:04:39.001Z,40.32
2024-02-05T04:05:10.610Z,40.43
2024-02-05T04:05:42.123Z,40.46
2024-02-05T04:06:16.473Z,40.50
2024-02-05T04:06:48.086Z,40.41
2024-02-05T04:07:19.673Z,40.47
2024-02-05T04:07:51.249Z,40.45
2024-02-05T04:08:22.742Z,40.47
2024-02-05T04:08:54.230Z,40.50
2024-02-05T04:09:25.694Z,40.47
2024-02-05T04:09:57.194Z,40.49
2024-02-05T04:10:28.841Z,40.41
2024-02-05T04:11:00.456Z,40.38
2024-02-05T04:11:32.016Z,40.49
2024-02-05T04:12:03.527Z,40.40
2024-02-05T04:12:35.031Z,40.37
2024-02-05T04:13:06.526Z,40.31
2024-02-05T04:13:38.007Z,40.56
2024-02-05T04:14:09.467Z,40.43
2024-02-05T04:14:42.086Z,40.45
2024-02-05T04:15:13.591Z,40.48
2024-02-05T04:15:47.282Z,40.19
2024-02-05T04:16:20.228Z,40.43
2024-02-05T04:16:51.880Z,40.43
2024-02-05T04:17:26.204Z,40.44
2024-02-05T04:17:57.688Z,40.45
2024-02-05T04:18:29.157Z,40.25
2024-02-05T04:19:00.777Z,40.45
2024-02-05T04:19:32.504Z,40.47
2024-02-05T04:20:04.129Z,40.42
2024-02-05T04:20:35.639Z,40.44
2024-02-05T04:21:07.148Z,40.42
2024-02-05T04:21:38.672Z,40.41
2024-02-05T04:22:10.178Z,40.44
2024-02-05T04:22:41.707Z,40.45
2024-02-05T04:23:13.188Z,40.46
2024-02-05T04:23:44.627Z,40.41
2024-02-05T04:24:18.767Z,40.39
2024-02-05T04:24:50.261Z,40.48
2024-02-05T04:25:21.926Z,40.42
2024-02-05T04:25:53.478Z,40.30
2024-02-05T04:26:25.299Z,40.37
2024-02-05T04:26:56.728Z,40.40
2024-02-05T04:27:30.919Z,40.36
2024-02-05T04:28:02.449Z,40.47
2024-02-05T04:28:33.984Z,40.45
2024-02-05T04:29:05.408Z,40.34
2024-02-05T04:29:36.866Z,40.42
2024-02-05T04:30:11.504Z,40.53
2024-02-05T04:30:43.072Z,40.49
2024-02-05T04:31:15.674Z,40.43
2024-02-05T04:31:47.232Z,40.38
2024-02-05T04:32:18.693Z,40.41
2024-02-05T04:32:50.187Z,40.22
2024-02-05T04:33:21.690Z,40.41
2024-02-05T04:33:53.310Z,40.42
2024-02-05T04:34:24.888Z,40.48
2024-02-05T04:34:56.524Z,40.47
2024-02-05T04:35:28.109Z,40.40
2024-02-05T04:35:59.548Z,40.33
2024-02-05T04:36:31.223Z,40.33
2024-02-05T04:37:05.323Z,40.39
2024-02-05T04:37:36.808Z,40.38
2024-02-05T04:38:08.259Z,40.32
2024-02-05T04:38:39.717Z,40.37
2024-02-05T04:39:12.831Z,40.25
2024-02-05T04:39:44.574Z,40.14
2024-02-05T04:40:16.301Z,40.07
2024-02-05T04:40:47.796Z,40.07
2024-02-05T04:41:19.293Z,40.23
2024-02-05T04:41:50.830Z,40.28
2024-02-05T04:42:22.355Z,40.22
2024-02-05T04:42:56.760Z,40.30
2024-02-05T04:43:28.230Z,40.37
2024-02-05T04:43:59.755Z,40.14
2024-02-05T04:44:31.224Z,40.21
2024-02-05T04:45:02.802Z,40.20
2024-02-05T04:45:34.289Z,40.33
2024-02-05T04:46:05.893Z,40.13
2024-02-05T04:46:37.410Z,40.29
2024-02-05T04:47:08.949Z,40.28
2024-02-05T04:47:40.473Z,40.20
2024-02-05T04:48:11.951Z,40.20
2024-02-05T04:48:43.446Z,40.19
2024-02-05T04:49:15.112Z,40.12
2024-02-05T04:49:46.934Z,40.36
2024-02-05T04:50:18.639Z,40.27
2024-02-05T04:50:50.141Z,40.18
2024-02-05T04:51:24.174Z,40.24
2024-02-05T04:51:55.653Z,40.27
2024-02-05T04:52:27.344Z,40.17
2024-02-05T04:52:58.847Z,40.16
2024-02-05T04:53:30.362Z,40.25
2024-02-05T04:54:01.882Z,40.15
2024-02-05T04:54:33.447Z,40.25
2024-02-05T04:55:05.090Z,40.13
2024-02-05T04:55:38.139Z,40.13
2024-02-05T04:56:10.973Z,40.25
2024-02-05T04:56:42.476Z,40.05
2024-02-05T04:57:13.992Z,40.26
2024-02-05T04:57:45.503Z,40.29
2024-02-05T04:58:18.621Z,40.24
2024-02-05T04:58:50.158Z,40.36
2024-02-05T04:59:21.689Z,40.19
2024-02-05T04:59:53.153Z,40.24
2024-02-05T05:00:28.823Z,40.22
2024-02-05T05:01:00.433Z,40.13
2024-02-05T05:01:31.987Z,40.23
2024-02-05T05:02:03.693Z,40.32
2024-02-05T05:02:35.307Z,40.22
2024-02-05T05:03:06.855Z,40.22
2024-02-05T05:03:38.510Z,40.19
2024-02-05T05:04:10.180Z,40.28
2024-02-05T05:04:41.659Z,40.13
2024-02-05T05:05:13.144Z,40.23
2024-02-05T05:05:44.706Z,40.05
2024-02-05T05:06:16.214Z,40.19
2024-02-05T05:06:47.805Z,40.22
2024-02-05T05:07:19.412Z,40.13
2024-02-05T05:07:51.022Z,40.09
2024-02-05T05:08:22.520Z,40.22
2024-02-05T05:08:53.969Z,40.24
2024-02-05T05:09:25.466Z,40.18
2024-02-05T05:09:56.955Z,40.20
2024-02-05T05:10:28.555Z,40.02
2024-02-05T05:11:00.122Z,40.17
2024-02-05T05:11:31.583Z,40.05
2024-02-05T05:12:02.999Z,40.26
2024-02-05T05:12:34.477Z,40.18
2024-02-05T05:13:06.017Z,40.07
2024-02-05T05:13:37.507Z,39.93
2024-02-05T05:14:08.981Z,40.14
2024-02-05T05:14:40.475Z,39.99
2024-02-05T05:15:12.090Z,40.01
2024-02-05T05:15:43.552Z,39.98
2024-02-05T05:16:15.086Z,39.99
2024-02-05T05:16:48.297Z,40.10
2024-02-05T05:17:19.830Z,40.08
2024-02-05T05:17:51.470Z,40.11
2024-02-05T05:18:23.212Z,40.02
2024-02-05T05:18:54.882Z,40.08
2024-02-05T05:19:26.530Z,40.05
2024-02-05T05:19:58.177Z,40.06
2024-02-05T05:20:29.718Z,40.12
2024-02-05T05:21:01.214Z,40.10
2024-02-05T05:21:32.678Z,40.02
2024-02-05T05:22:04.235Z,40.02
2024-02-05T05:22:35.766Z,40.02
2024-02-05T05:23:07.273Z,39.95
2024-02-05T05:23:38.704Z,40.07
2024-02-05T05:24:10.165Z,40.08
2024-02-05T05:24:41.659Z,40.01
2024-02-05T05:25:13.264Z,40.06
2024-02-05T05:25:47.721Z,40.11
2024-02-05T05:26:19.182Z,40.12
2024-02-05T05:26:50.650Z,40.08
2024-02-05T05:27:22.427Z,39.92
2024-02-05T05:27:53.969Z,40.02
2024-02-05T05:28:25.502Z,39.93
2024-02-05T05:28:56.947Z,40.14
2024-02-05T05:29:28.419Z,40.02
2024-02-05T05:29:59.850Z,39.98
2024-02-05T05:30:37.228Z,39.92
2024-02-05T05:31:08.871Z,39.91
2024-02-05T05:31:41.454Z,40.06
2024-02-05T05:32:12.942Z,40.05
2024-02-05T05:32:44.416Z,40.06
2024-02-05T05:33:15.890Z,39.93
2024-02-05T05:33:47.555Z,39.93
2024-02-05T05:34:19.198Z,40.10
2024-02-05T05:34:50.758Z,39.89
2024-02-05T05:35:22.187Z,40.00
2024-02-05T05:35:53.714Z,39.96
2024-02-05T05:36:25.196Z,39.99
2024-02-05T05:36:56.685Z,39.90
2024-02-05T05:37:28.364Z,39.95
2024-02-05T05:38:02.748Z,39.89
2024-02-05T05:38:34.273Z,39.91
2024-02-05T05:39:05.734Z,39.93
2024-02-05T05:39:37.229Z,40.01
2024-02-05T05:40:08.752Z,39.90
2024-02-05T05:40:40.300Z,40.08
2024-02-05T05:41:11.731Z,40.02
2024-02-05T05:41:43.238Z,39.84
2024-02-05T05:42:16.362Z,39.99
2024-02-05T05:42:47.761Z,39.83
2024-02-05T05:43:19.404Z,39.98
2024-02-05T05:43:50.945Z,39.85
2024-02-05T05:44:22.533Z,39.78
2024-02-05T05:44:54.051Z,39.86
2024-02-05T05:45:25.621Z,40.05
2024-02-05T05:45:59.834Z,39.95
2024-02-05T05:46:31.386Z,39.89
2024-02-05T05:47:08.665Z,39.75
2024-02-05T05:47:40.275Z,39.88
2024-02-05T05:48:11.826Z,39.96
2024-02-05T05:48:45.890Z,39.91
2024-02-05T05:49:17.462Z,40.11
2024-02-05T05:49:49.050Z,39.95
2024-02-05T05:50:20.695Z,39.82
2024-02-05T05:50:52.272Z,39.95
2024-02-05T05:51:23.730Z,39.96
2024-02-05T05:51:55.191Z,40.00
2024-02-05T05:52:26.726Z,39.93
2024-02-05T05:52:58.172Z,39.78
2024-02-05T05:53:29.665Z,39.99
2024-02-05T05:54:01.134Z,39.87
2024-02-05T05:54:32.689Z,39.94
2024-02-05T05:55:07.227Z,39.85
2024-02-05T05:55:42.401Z,39.93
2024-02-05T05:56:13.880Z,39.89
2024-02-05T05:56:45.492Z,39.95
2024-02-05T05:57:16.992Z,39.86
2024-02-05T05:57:50.444Z,39.88
2024-02-05T05:58:23.827Z,39.86
2024-02-05T05:58:55.332Z,39.70
2024-02-05T05:59:28.034Z,39.84
2024-02-05T05:59:59.500Z,39.91
2024-02-05T06:00:31.089Z,39.86
2024-02-05T06:01:05.254Z,39.95
2024-02-05T06:01:36.971Z,39.81
2024-02-05T06:02:08.729Z,39.84
2024-02-05T06:02:42.331Z,39.64
2024-02-05T06:03:13.766Z,39.81
2024-02-05T06:03:45.287Z,39.67
2024-02-05T06:04:16.888Z,39.68
2024-02-05T06:04:48.504Z,39.96
2024-02-05T06:05:20.173Z,39.81
2024-02-05T06:05:51.769Z,39.79
2024-02-05T06:06:23.321Z,39.79
2024-02-05T06:06:57.558Z,39.64
2024-02-05T06:07:29.227Z,39.87
2024-02-05T06:08:00.775Z,39.64
2024-02-05T06:08:32.229Z,39.76
2024-02-05T06:09:03.802Z,39.81
2024-02-05T06:09:35.265Z,40.05
2024-02-05T06:10:06.756Z,39.79
2024-02-05T06:10:39.469Z,39.80
2024-02-05T06:11:13.189Z,39.81
2024-02-05T06:11:44.647Z,39.62
2024-02-05T06:12:16.101Z,39.74
2024-02-05T06:12:50.557Z,39.80
2024-02-05T06:13:22.220Z,39.80
2024-02-05T06:13:58.842Z,39.73
2024-02-05T06:14:30.602Z,39.68
2024-02-05T06:15:04.667Z,39.75
2024-02-05T06:15:36.092Z,39.77
2024-02-05T06:16:07.630Z,39.76
2024-02-05T06:16:39.224Z,39.78
2024-02-05T06:17:10.755Z,39.67
2024-02-05T06:17:42.488Z,39.70
2024-02-05T06:18:14.040Z,39.67
2024-02-05T06:18:45.606Z,39.77
2024-02-05T06:19:17.384Z,39.69
2024-02-05T06:19:51.805Z,39.58
2024-02-05T06:20:26.359Z,39.71
2024-02-05T06:20:57.828Z,39.58
2024-02-05T06:21:29.265Z,39.68
2024-02-05T06:22:00.917Z,39.73
2024-02-05T06:22:32.433Z,39.63
2024-02-05T06:23:03.925Z,39.64
2024-02-05T06:23:35.373Z,39.71
2024-02-05T06:24:11.830Z,39.58
2024-02-05T06:24:43.401Z,39.62
2024-02-05T06:25:15.051Z,39.68
2024-02-05T06:25:49.669Z,39.58
2024-02-05T06:26:21.129Z,39.71
2024-02-05T06:26:53.883Z,39.62
2024-02-05T06:27:28.738Z,39.44
2024-02-05T06:28:00.229Z,39.59
2024-02-05T06:28:31.945Z,39.59
2024-02-05T06:29:03.535Z,39.66
2024-02-05T06:29:34.979Z,39.46
2024-02-05T06:30:06.501Z,39.62
2024-02-05T06:30:37.968Z,39.48
2024-02-05T06:31:11.782Z,39.51
2024-02-05T06:31:43.335Z,39.62
2024-02-05T06:32:15.048Z,39.55
2024-02-05T06:32:46.592Z,39.58
2024-02-05T06:33:19.329Z,39.47
2024-02-05T06:33:50.881Z,39.58
2024-02-05T06:34:22.549Z,39.45
2024-02-05T06:34:56.827Z,39.58
2024-02-05T06:35:28.322Z,39.60
2024-02-05T06:35:59.820Z,39.58
2024-02-05T06:36:31.324Z,39.56
2024-02-05T06:37:02.884Z,39.50
2024-02-05T06:37:34.368Z,39.58
2024-02-05T06:38:05.826Z,39.44
2024-02-05T06:38:37.304Z,39.55
2024-02-05T06:39:08.762Z,39.52
2024-02-05T06:39:40.320Z,39.56
2024-02-05T06:40:11.878Z,39.42
2024-02-05T06:40:44.953Z,39.58
2024-02-05T06:41:21.715Z,39.57
2024-02-05T06:41:55.211Z,39.44
2024-02-05T06:42:26.688Z,39.60
2024-02-05T06:42:58.159Z,39.49
2024-02-05T06:43:29.657Z,39.45
2024-02-05T06:44:01.180Z,39.46
2024-02-05T06:44:33.809Z,39.46
2024-02-05T06:45:11.537Z,39.60
2024-02-05T06:45:43.225Z,39.46
2024-02-05T06:46:14.781Z,39.46
2024-02-05T06:46:46.314Z,39.49
2024-02-05T06:47:17.844Z,39.52
2024-02-05T06:47:49.416Z,39.46
2024-02-05T06:48:21.139Z,39.39
2024-02-05T06:48:52.793Z,39.44
2024-02-05T06:49:24.456Z,39.44
2024-02-05T06:49:58.433Z,39.44
2024-02-05T06:50:33.359Z,39.53
2024-02-05T06:51:04.929Z,39.36
2024-02-05T06:51:36.471Z,39.41